sensor_id;sensor_type;location;lat;lon;timestamp;P1;durP1;ratioP1;P2;durP2;ratioP2
51927;SDS011;37953;52.806;18.270;2022-12-19T00:01:24;60.00;;;21.07;;
51927;SDS011;37953;52.806;18.270;2022-12-19T00:03:56;58.90;;;19.90;;
51927;SDS011;37953;52.806;18.270;2022-12-19T00:06:24;64.37;;;20.87;;
51927;SDS011;37953;52.806;18.270;2022-12-19T00:08:52;61.57;;;19.93;;
51927;SDS011;37953;52.806;18.270;2022-12-19T00:11:21;60.77;;;19.17;;
51927;SDS011;37953;52.806;18.270;2022-12-19T00:13:48;59.50;;;19.57;;
51927;SDS011;37953;52.806;18.270;2022-12-19T00:16:20;61.03;;;19.48;;
51927;SDS011;37953;52.806;18.270;2022-12-19T00:18:54;57.40;;;20.53;;
51927;SDS011;37953;52.806;18.270;2022-12-19T00:21:23;60.30;;;20.97;;
51927;SDS011;37953;52.806;18.270;2022-12-19T00:23:55;60.20;;;19.37;;
51927;SDS011;37953;52.806;18.270;2022-12-19T00:26:29;54.97;;;19.60;;
51927;SDS011;37953;52.806;18.270;2022-12-19T00:28:58;57.00;;;18.77;;
51927;SDS011;37953;52.806;18.270;2022-12-19T00:31:26;62.47;;;20.63;;
51927;SDS011;37953;52.806;18.270;2022-12-19T00:33:59;55.53;;;19.57;;
51927;SDS011;37953;52.806;18.270;2022-12-19T00:36:27;52.93;;;19.27;;
51927;SDS011;37953;52.806;18.270;2022-12-19T00:39:00;56.07;;;18.50;;
51927;SDS011;37953;52.806;18.270;2022-12-19T00:41:29;53.27;;;18.60;;
51927;SDS011;37953;52.806;18.270;2022-12-19T00:44:02;57.73;;;18.57;;
51927;SDS011;37953;52.806;18.270;2022-12-19T00:46:53;48.27;;;17.00;;
51927;SDS011;37953;52.806;18.270;2022-12-19T00:49:19;47.63;;;17.33;;
51927;SDS011;37953;52.806;18.270;2022-12-19T00:51:46;48.53;;;18.03;;
51927;SDS011;37953;52.806;18.270;2022-12-19T00:54:11;59.60;;;18.50;;
51927;SDS011;37953;52.806;18.270;2022-12-19T00:56:38;53.63;;;17.40;;
51927;SDS011;37953;52.806;18.270;2022-12-19T00:59:04;52.13;;;17.73;;
51927;SDS011;37953;52.806;18.270;2022-12-19T01:01:32;50.50;;;17.73;;
51927;SDS011;37953;52.806;18.270;2022-12-19T01:04:01;50.28;;;18.08;;
51927;SDS011;37953;52.806;18.270;2022-12-19T01:06:29;59.20;;;18.50;;
51927;SDS011;37953;52.806;18.270;2022-12-19T01:08:55;53.27;;;18.27;;
51927;SDS011;37953;52.806;18.270;2022-12-19T01:11:21;52.23;;;18.23;;
51927;SDS011;37953;52.806;18.270;2022-12-19T01:14:08;56.87;;;18.97;;
51927;SDS011;37953;52.806;18.270;2022-12-19T01:16:35;55.13;;;18.70;;
51927;SDS011;37953;52.806;18.270;2022-12-19T01:19:01;65.90;;;20.37;;
51927;SDS011;37953;52.806;18.270;2022-12-19T01:21:29;60.90;;;18.33;;
51927;SDS011;37953;52.806;18.270;2022-12-19T01:23:55;61.17;;;19.47;;
51927;SDS011;37953;52.806;18.270;2022-12-19T01:26:22;63.17;;;18.77;;
51927;SDS011;37953;52.806;18.270;2022-12-19T01:28:47;64.30;;;19.60;;
51927;SDS011;37953;52.806;18.270;2022-12-19T01:31:14;65.03;;;20.23;;
51927;SDS011;37953;52.806;18.270;2022-12-19T01:33:39;56.43;;;19.60;;
51927;SDS011;37953;52.806;18.270;2022-12-19T01:36:06;62.23;;;19.83;;
51927;SDS011;37953;52.806;18.270;2022-12-19T01:38:33;61.10;;;20.03;;
51927;SDS011;37953;52.806;18.270;2022-12-19T01:41:01;70.13;;;20.83;;
51927;SDS011;37953;52.806;18.270;2022-12-19T01:43:31;67.57;;;20.93;;
51927;SDS011;37953;52.806;18.270;2022-12-19T01:46:17;62.30;;;20.38;;
51927;SDS011;37953;52.806;18.270;2022-12-19T01:48:50;61.83;;;20.17;;
51927;SDS011;37953;52.806;18.270;2022-12-19T01:51:20;56.20;;;19.73;;
51927;SDS011;37953;52.806;18.270;2022-12-19T01:53:49;62.37;;;20.43;;
51927;SDS011;37953;52.806;18.270;2022-12-19T01:56:22;62.90;;;19.37;;
51927;SDS011;37953;52.806;18.270;2022-12-19T01:58:53;57.37;;;18.93;;
51927;SDS011;37953;52.806;18.270;2022-12-19T02:01:21;60.77;;;19.87;;
51927;SDS011;37953;52.806;18.270;2022-12-19T02:03:47;55.40;;;18.57;;
51927;SDS011;37953;52.806;18.270;2022-12-19T02:06:14;57.13;;;19.23;;
51927;SDS011;37953;52.806;18.270;2022-12-19T02:08:40;54.20;;;18.57;;
51927;SDS011;37953;52.806;18.270;2022-12-19T02:11:09;56.75;;;18.42;;
51927;SDS011;37953;52.806;18.270;2022-12-19T02:13:35;47.57;;;16.87;;
51927;SDS011;37953;52.806;18.270;2022-12-19T02:16:04;52.42;;;17.67;;
51927;SDS011;37953;52.806;18.270;2022-12-19T02:18:33;46.80;;;16.77;;
51927;SDS011;37953;52.806;18.270;2022-12-19T02:21:29;52.60;;;17.75;;
51927;SDS011;37953;52.806;18.270;2022-12-19T02:30:16;48.57;;;17.00;;
51927;SDS011;37953;52.806;18.270;2022-12-19T02:33:09;50.65;;;17.10;;
51927;SDS011;37953;52.806;18.270;2022-12-19T02:35:53;53.37;;;17.20;;
51927;SDS011;37953;52.806;18.270;2022-12-19T02:38:30;56.83;;;18.80;;
51927;SDS011;37953;52.806;18.270;2022-12-19T02:43:43;54.50;;;18.93;;
51927;SDS011;37953;52.806;18.270;2022-12-19T02:46:13;58.73;;;20.60;;
51927;SDS011;37953;52.806;18.270;2022-12-19T02:48:41;56.33;;;19.37;;
51927;SDS011;37953;52.806;18.270;2022-12-19T02:51:08;49.33;;;18.00;;
51927;SDS011;37953;52.806;18.270;2022-12-19T02:53:49;47.97;;;17.87;;
51927;SDS011;37953;52.806;18.270;2022-12-19T03:02:16;51.17;;;17.90;;
51927;SDS011;37953;52.806;18.270;2022-12-19T03:12:57;53.03;;;17.57;;
51927;SDS011;37953;52.806;18.270;2022-12-19T03:15:28;47.27;;;17.63;;
51927;SDS011;37953;52.806;18.270;2022-12-19T03:17:57;50.00;;;17.63;;
51927;SDS011;37953;52.806;18.270;2022-12-19T03:21:07;51.93;;;16.40;;
51927;SDS011;37953;52.806;18.270;2022-12-19T03:23:27;57.67;;;16.50;;
51927;SDS011;37953;52.806;18.270;2022-12-19T03:25:54;45.43;;;16.63;;
51927;SDS011;37953;52.806;18.270;2022-12-19T03:28:35;43.57;;;15.97;;
51927;SDS011;37953;52.806;18.270;2022-12-19T03:31:24;48.33;;;16.43;;
51927;SDS011;37953;52.806;18.270;2022-12-19T03:33:59;47.60;;;16.57;;
51927;SDS011;37953;52.806;18.270;2022-12-19T03:36:29;45.50;;;16.57;;
51927;SDS011;37953;52.806;18.270;2022-12-19T03:39:05;49.53;;;17.00;;
51927;SDS011;37953;52.806;18.270;2022-12-19T03:41:34;53.13;;;17.03;;
51927;SDS011;37953;52.806;18.270;2022-12-19T03:44:21;54.13;;;18.03;;
51927;SDS011;37953;52.806;18.270;2022-12-19T03:46:53;56.17;;;18.70;;
51927;SDS011;37953;52.806;18.270;2022-12-19T03:49:25;50.93;;;17.80;;
51927;SDS011;37953;52.806;18.270;2022-12-19T03:51:58;54.53;;;19.53;;
51927;SDS011;37953;52.806;18.270;2022-12-19T03:54:50;48.90;;;18.47;;
51927;SDS011;37953;52.806;18.270;2022-12-19T03:57:37;47.58;;;17.38;;
51927;SDS011;37953;52.806;18.270;2022-12-19T04:00:23;50.67;;;17.50;;
51927;SDS011;37953;52.806;18.270;2022-12-19T04:02:58;43.80;;;16.67;;
51927;SDS011;37953;52.806;18.270;2022-12-19T04:05:26;49.17;;;16.53;;
51927;SDS011;37953;52.806;18.270;2022-12-19T04:08:01;44.93;;;15.83;;
51927;SDS011;37953;52.806;18.270;2022-12-19T04:10:30;49.47;;;17.03;;
51927;SDS011;37953;52.806;18.270;2022-12-19T04:13:07;46.83;;;17.13;;
51927;SDS011;37953;52.806;18.270;2022-12-19T04:15:48;49.43;;;18.03;;
51927;SDS011;37953;52.806;18.270;2022-12-19T04:18:29;51.20;;;17.00;;
51927;SDS011;37953;52.806;18.270;2022-12-19T04:21:12;45.23;;;16.40;;
51927;SDS011;37953;52.806;18.270;2022-12-19T04:23:56;54.07;;;18.07;;
51927;SDS011;37953;52.806;18.270;2022-12-19T04:26:46;46.70;;;17.37;;
51927;SDS011;37953;52.806;18.270;2022-12-19T04:29:14;52.90;;;18.07;;
51927;SDS011;37953;52.806;18.270;2022-12-19T04:31:42;52.73;;;17.73;;
51927;SDS011;37953;52.806;18.270;2022-12-19T04:34:09;51.93;;;17.57;;
51927;SDS011;37953;52.806;18.270;2022-12-19T04:36:35;45.70;;;16.40;;
51927;SDS011;37953;52.806;18.270;2022-12-19T04:39:02;49.27;;;17.37;;
51927;SDS011;37953;52.806;18.270;2022-12-19T04:41:28;49.00;;;16.80;;
51927;SDS011;37953;52.806;18.270;2022-12-19T04:43:54;44.53;;;16.43;;
51927;SDS011;37953;52.806;18.270;2022-12-19T04:46:20;45.40;;;17.13;;
51927;SDS011;37953;52.806;18.270;2022-12-19T04:48:46;48.23;;;17.20;;
51927;SDS011;37953;52.806;18.270;2022-12-19T04:51:14;52.60;;;18.13;;
51927;SDS011;37953;52.806;18.270;2022-12-19T04:53:45;50.83;;;18.70;;
51927;SDS011;37953;52.806;18.270;2022-12-19T04:56:11;49.57;;;17.37;;
51927;SDS011;37953;52.806;18.270;2022-12-19T04:58:37;54.17;;;17.87;;
51927;SDS011;37953;52.806;18.270;2022-12-19T05:01:04;49.47;;;17.00;;
51927;SDS011;37953;52.806;18.270;2022-12-19T05:03:32;48.43;;;16.20;;
51927;SDS011;37953;52.806;18.270;2022-12-19T05:06:02;44.40;;;16.97;;
51927;SDS011;37953;52.806;18.270;2022-12-19T05:08:29;47.23;;;16.67;;
51927;SDS011;37953;52.806;18.270;2022-12-19T05:11:02;45.93;;;17.40;;
51927;SDS011;37953;52.806;18.270;2022-12-19T05:13:29;50.57;;;16.47;;
51927;SDS011;37953;52.806;18.270;2022-12-19T05:15:56;51.67;;;15.83;;
51927;SDS011;37953;52.806;18.270;2022-12-19T05:18:23;51.30;;;16.83;;
51927;SDS011;37953;52.806;18.270;2022-12-19T05:20:49;51.47;;;17.43;;
51927;SDS011;37953;52.806;18.270;2022-12-19T05:23:15;50.10;;;17.27;;
51927;SDS011;37953;52.806;18.270;2022-12-19T05:25:42;49.63;;;17.07;;
51927;SDS011;37953;52.806;18.270;2022-12-19T05:28:07;39.30;;;15.67;;
51927;SDS011;37953;52.806;18.270;2022-12-19T05:30:34;46.37;;;16.03;;
51927;SDS011;37953;52.806;18.270;2022-12-19T05:33:00;49.87;;;16.47;;
51927;SDS011;37953;52.806;18.270;2022-12-19T05:35:26;43.60;;;16.43;;
51927;SDS011;37953;52.806;18.270;2022-12-19T05:37:52;52.43;;;16.57;;
51927;SDS011;37953;52.806;18.270;2022-12-19T05:40:18;49.27;;;15.90;;
51927;SDS011;37953;52.806;18.270;2022-12-19T05:42:50;40.23;;;15.07;;
51927;SDS011;37953;52.806;18.270;2022-12-19T05:45:17;45.83;;;16.57;;
51927;SDS011;37953;52.806;18.270;2022-12-19T05:47:43;49.83;;;17.30;;
51927;SDS011;37953;52.806;18.270;2022-12-19T05:50:14;57.27;;;18.97;;
51927;SDS011;37953;52.806;18.270;2022-12-19T05:52:41;55.72;;;18.67;;
51927;SDS011;37953;52.806;18.270;2022-12-19T05:55:08;54.83;;;18.27;;
51927;SDS011;37953;52.806;18.270;2022-12-19T05:57:34;52.47;;;17.47;;
51927;SDS011;37953;52.806;18.270;2022-12-19T06:00:01;59.53;;;18.53;;
51927;SDS011;37953;52.806;18.270;2022-12-19T06:02:32;53.70;;;18.60;;
51927;SDS011;37953;52.806;18.270;2022-12-19T06:04:58;47.27;;;15.07;;
51927;SDS011;37953;52.806;18.270;2022-12-19T06:07:24;48.90;;;16.47;;
51927;SDS011;37953;52.806;18.270;2022-12-19T06:09:50;47.37;;;17.17;;
51927;SDS011;37953;52.806;18.270;2022-12-19T06:12:16;47.97;;;16.87;;
51927;SDS011;37953;52.806;18.270;2022-12-19T06:14:43;47.17;;;16.07;;
51927;SDS011;37953;52.806;18.270;2022-12-19T06:17:08;49.37;;;16.50;;
51927;SDS011;37953;52.806;18.270;2022-12-19T06:19:35;43.77;;;15.60;;
51927;SDS011;37953;52.806;18.270;2022-12-19T06:22:07;45.47;;;15.57;;
51927;SDS011;37953;52.806;18.270;2022-12-19T06:24:33;42.63;;;14.60;;
51927;SDS011;37953;52.806;18.270;2022-12-19T06:26:59;43.57;;;15.10;;
51927;SDS011;37953;52.806;18.270;2022-12-19T06:29:25;42.97;;;15.17;;
51927;SDS011;37953;52.806;18.270;2022-12-19T06:31:51;43.17;;;16.00;;
51927;SDS011;37953;52.806;18.270;2022-12-19T06:34:18;47.47;;;18.13;;
51927;SDS011;37953;52.806;18.270;2022-12-19T06:36:44;49.57;;;18.23;;
51927;SDS011;37953;52.806;18.270;2022-12-19T06:39:13;50.07;;;16.97;;
51927;SDS011;37953;52.806;18.270;2022-12-19T06:41:46;49.73;;;18.60;;
51927;SDS011;37953;52.806;18.270;2022-12-19T06:44:31;47.93;;;16.50;;
51927;SDS011;37953;52.806;18.270;2022-12-19T06:46:58;50.10;;;16.47;;
51927;SDS011;37953;52.806;18.270;2022-12-19T06:49:24;53.30;;;18.60;;
51927;SDS011;37953;52.806;18.270;2022-12-19T06:51:50;47.90;;;17.17;;
51927;SDS011;37953;52.806;18.270;2022-12-19T06:54:16;50.63;;;17.80;;
51927;SDS011;37953;52.806;18.270;2022-12-19T06:56:42;51.90;;;18.50;;
51927;SDS011;37953;52.806;18.270;2022-12-19T06:59:12;51.90;;;18.63;;
51927;SDS011;37953;52.806;18.270;2022-12-19T07:04:44;56.67;;;20.53;;
51927;SDS011;37953;52.806;18.270;2022-12-19T07:07:13;55.13;;;19.37;;
51927;SDS011;37953;52.806;18.270;2022-12-19T07:09:39;56.07;;;19.60;;
51927;SDS011;37953;52.806;18.270;2022-12-19T07:12:05;51.50;;;18.50;;
51927;SDS011;37953;52.806;18.270;2022-12-19T07:14:32;57.37;;;18.87;;
51927;SDS011;37953;52.806;18.270;2022-12-19T07:16:58;65.80;;;21.87;;
51927;SDS011;37953;52.806;18.270;2022-12-19T07:19:31;58.03;;;21.27;;
51927;SDS011;37953;52.806;18.270;2022-12-19T07:21:58;58.93;;;21.23;;
51927;SDS011;37953;52.806;18.270;2022-12-19T07:24:29;51.13;;;18.90;;
51927;SDS011;37953;52.806;18.270;2022-12-19T07:26:55;54.40;;;19.27;;
51927;SDS011;37953;52.806;18.270;2022-12-19T07:29:22;82.20;;;24.27;;
51927;SDS011;37953;52.806;18.270;2022-12-19T07:31:48;67.27;;;22.13;;
51927;SDS011;37953;52.806;18.270;2022-12-19T07:34:15;56.60;;;20.17;;
51927;SDS011;37953;52.806;18.270;2022-12-19T07:36:41;60.03;;;21.13;;
51927;SDS011;37953;52.806;18.270;2022-12-19T07:39:07;55.47;;;21.20;;
51927;SDS011;37953;52.806;18.270;2022-12-19T07:41:36;59.33;;;19.60;;
51927;SDS011;37953;52.806;18.270;2022-12-19T07:44:03;53.63;;;18.87;;
51927;SDS011;37953;52.806;18.270;2022-12-19T07:46:31;64.03;;;20.93;;
51927;SDS011;37953;52.806;18.270;2022-12-19T07:48:57;64.03;;;21.73;;
51927;SDS011;37953;52.806;18.270;2022-12-19T07:51:23;57.87;;;19.77;;
51927;SDS011;37953;52.806;18.270;2022-12-19T07:53:49;51.00;;;18.77;;
51927;SDS011;37953;52.806;18.270;2022-12-19T07:56:15;51.33;;;19.00;;
51927;SDS011;37953;52.806;18.270;2022-12-19T07:58:41;53.97;;;17.47;;
51927;SDS011;37953;52.806;18.270;2022-12-19T08:01:09;53.80;;;18.07;;
51927;SDS011;37953;52.806;18.270;2022-12-19T08:03:36;52.57;;;17.63;;
51927;SDS011;37953;52.806;18.270;2022-12-19T08:06:03;46.07;;;16.93;;
51927;SDS011;37953;52.806;18.270;2022-12-19T08:08:36;45.67;;;17.53;;
51927;SDS011;37953;52.806;18.270;2022-12-19T08:11:09;50.67;;;18.40;;
51927;SDS011;37953;52.806;18.270;2022-12-19T08:13:37;51.40;;;17.77;;
51927;SDS011;37953;52.806;18.270;2022-12-19T08:16:10;56.17;;;19.43;;
51927;SDS011;37953;52.806;18.270;2022-12-19T08:18:36;58.27;;;21.07;;
51927;SDS011;37953;52.806;18.270;2022-12-19T08:21:02;56.60;;;20.83;;
51927;SDS011;37953;52.806;18.270;2022-12-19T08:23:28;63.03;;;21.40;;
51927;SDS011;37953;52.806;18.270;2022-12-19T08:26:04;51.70;;;19.33;;
51927;SDS011;37953;52.806;18.270;2022-12-19T08:28:36;51.47;;;19.03;;
51927;SDS011;37953;52.806;18.270;2022-12-19T08:31:06;59.33;;;19.33;;
51927;SDS011;37953;52.806;18.270;2022-12-19T08:33:37;57.87;;;19.93;;
51927;SDS011;37953;52.806;18.270;2022-12-19T08:36:04;55.50;;;19.70;;
51927;SDS011;37953;52.806;18.270;2022-12-19T08:38:33;49.10;;;18.13;;
51927;SDS011;37953;52.806;18.270;2022-12-19T08:41:05;57.40;;;18.80;;
51927;SDS011;37953;52.806;18.270;2022-12-19T08:43:31;52.63;;;19.90;;
51927;SDS011;37953;52.806;18.270;2022-12-19T08:45:58;52.67;;;19.93;;
51927;SDS011;37953;52.806;18.270;2022-12-19T08:48:25;49.30;;;18.60;;
51927;SDS011;37953;52.806;18.270;2022-12-19T08:50:54;61.57;;;19.30;;
51927;SDS011;37953;52.806;18.270;2022-12-19T08:53:22;53.05;;;19.55;;
51927;SDS011;37953;52.806;18.270;2022-12-19T08:55:56;54.67;;;18.93;;
51927;SDS011;37953;52.806;18.270;2022-12-19T08:58:24;55.37;;;18.37;;
51927;SDS011;37953;52.806;18.270;2022-12-19T09:01:02;52.07;;;17.77;;
51927;SDS011;37953;52.806;18.270;2022-12-19T09:03:30;51.37;;;18.73;;
51927;SDS011;37953;52.806;18.270;2022-12-19T09:05:57;48.03;;;18.17;;
51927;SDS011;37953;52.806;18.270;2022-12-19T09:08:28;50.57;;;18.50;;
51927;SDS011;37953;52.806;18.270;2022-12-19T09:10:58;54.73;;;19.73;;
51927;SDS011;37953;52.806;18.270;2022-12-19T09:13:29;52.97;;;20.07;;
51927;SDS011;37953;52.806;18.270;2022-12-19T09:16:04;55.03;;;19.20;;
51927;SDS011;37953;52.806;18.270;2022-12-19T09:18:49;60.33;;;19.53;;
51927;SDS011;37953;52.806;18.270;2022-12-19T09:21:24;54.85;;;18.85;;
51927;SDS011;37953;52.806;18.270;2022-12-19T09:23:55;60.53;;;20.30;;
51927;SDS011;37953;52.806;18.270;2022-12-19T09:26:23;52.35;;;19.58;;
51927;SDS011;37953;52.806;18.270;2022-12-19T09:28:50;54.60;;;18.98;;
51927;SDS011;37953;52.806;18.270;2022-12-19T09:31:17;55.07;;;18.73;;
51927;SDS011;37953;52.806;18.270;2022-12-19T09:33:46;55.17;;;19.55;;
51927;SDS011;37953;52.806;18.270;2022-12-19T09:36:13;60.53;;;20.07;;
51927;SDS011;37953;52.806;18.270;2022-12-19T09:38:41;56.13;;;20.05;;
51927;SDS011;37953;52.806;18.270;2022-12-19T09:44:26;60.43;;;20.40;;
51927;SDS011;37953;52.806;18.270;2022-12-19T09:47:13;58.20;;;19.67;;
51927;SDS011;37953;52.806;18.270;2022-12-19T09:49:47;60.33;;;21.13;;
51927;SDS011;37953;52.806;18.270;2022-12-19T09:52:16;60.93;;;21.33;;
51927;SDS011;37953;52.806;18.270;2022-12-19T09:54:52;57.08;;;20.95;;
51927;SDS011;37953;52.806;18.270;2022-12-19T09:57:25;62.95;;;21.60;;
51927;SDS011;37953;52.806;18.270;2022-12-19T10:00:18;57.17;;;20.10;;
51927;SDS011;37953;52.806;18.270;2022-12-19T10:02:54;60.15;;;20.98;;
51927;SDS011;37953;52.806;18.270;2022-12-19T10:08:43;70.63;;;22.90;;
51927;SDS011;37953;52.806;18.270;2022-12-19T10:11:21;64.32;;;22.45;;
51927;SDS011;37953;52.806;18.270;2022-12-19T10:22:53;77.68;;;26.63;;
51927;SDS011;37953;52.806;18.270;2022-12-19T10:28:28;81.93;;;25.35;;
51927;SDS011;37953;52.806;18.270;2022-12-19T10:31:19;80.00;;;25.05;;
51927;SDS011;37953;52.806;18.270;2022-12-19T10:33:54;69.50;;;23.67;;
51927;SDS011;37953;52.806;18.270;2022-12-19T10:36:26;78.53;;;25.67;;
51927;SDS011;37953;52.806;18.270;2022-12-19T10:41:58;79.07;;;25.73;;
51927;SDS011;37953;52.806;18.270;2022-12-19T10:44:32;68.65;;;23.45;;
51927;SDS011;37953;52.806;18.270;2022-12-19T10:47:03;71.78;;;24.33;;
51927;SDS011;37953;52.806;18.270;2022-12-19T10:49:29;71.88;;;26.63;;
51927;SDS011;37953;52.806;18.270;2022-12-19T10:51:58;63.90;;;23.98;;
51927;SDS011;37953;52.806;18.270;2022-12-19T10:59:59;63.97;;;24.80;;
51927;SDS011;37953;52.806;18.270;2022-12-19T11:05:05;60.53;;;24.13;;
51927;SDS011;37953;52.806;18.270;2022-12-19T11:08:14;67.80;;;26.00;;
51927;SDS011;37953;52.806;18.270;2022-12-19T11:10:52;70.07;;;26.05;;
51927;SDS011;37953;52.806;18.270;2022-12-19T11:16:22;63.63;;;23.65;;
51927;SDS011;37953;52.806;18.270;2022-12-19T11:18:59;68.28;;;22.15;;
51927;SDS011;37953;52.806;18.270;2022-12-19T11:21:29;62.40;;;23.98;;
51927;SDS011;37953;52.806;18.270;2022-12-19T11:24:00;64.50;;;24.75;;
51927;SDS011;37953;52.806;18.270;2022-12-19T11:29:04;61.33;;;23.75;;
51927;SDS011;37953;52.806;18.270;2022-12-19T11:31:58;62.70;;;24.42;;
51927;SDS011;37953;52.806;18.270;2022-12-19T11:34:31;64.65;;;23.88;;
51927;SDS011;37953;52.806;18.270;2022-12-19T11:40:14;70.22;;;24.65;;
51927;SDS011;37953;52.806;18.270;2022-12-19T11:43:07;68.90;;;25.55;;
51927;SDS011;37953;52.806;18.270;2022-12-19T11:48:46;62.05;;;23.65;;
51927;SDS011;37953;52.806;18.270;2022-12-19T11:51:40;65.10;;;23.77;;
51927;SDS011;37953;52.806;18.270;2022-12-19T11:54:20;67.60;;;25.15;;
51927;SDS011;37953;52.806;18.270;2022-12-19T11:56:55;60.45;;;24.33;;
51927;SDS011;37953;52.806;18.270;2022-12-19T11:59:34;74.30;;;26.23;;
51927;SDS011;37953;52.806;18.270;2022-12-19T12:07:34;74.60;;;26.40;;
51927;SDS011;37953;52.806;18.270;2022-12-19T12:10:18;66.35;;;25.45;;
51927;SDS011;37953;52.806;18.270;2022-12-19T12:12:52;62.78;;;24.73;;
51927;SDS011;37953;52.806;18.270;2022-12-19T12:24:43;63.15;;;25.25;;
51927;SDS011;37953;52.806;18.270;2022-12-19T12:30:22;66.35;;;25.40;;
51927;SDS011;37953;52.806;18.270;2022-12-19T12:36:00;64.70;;;23.33;;
51927;SDS011;37953;52.806;18.270;2022-12-19T12:41:42;67.32;;;25.25;;
51927;SDS011;37953;52.806;18.270;2022-12-19T12:44:34;58.33;;;24.52;;
51927;SDS011;37953;52.806;18.270;2022-12-19T12:47:11;64.05;;;26.08;;
51927;SDS011;37953;52.806;18.270;2022-12-19T12:50:06;69.97;;;25.70;;
51927;SDS011;37953;52.806;18.270;2022-12-19T12:52:39;64.97;;;24.90;;
51927;SDS011;37953;52.806;18.270;2022-12-19T12:55:13;61.95;;;25.25;;
51927;SDS011;37953;52.806;18.270;2022-12-19T12:57:42;65.50;;;25.88;;
51927;SDS011;37953;52.806;18.270;2022-12-19T13:00:30;62.78;;;24.55;;
51927;SDS011;37953;52.806;18.270;2022-12-19T13:03:02;62.17;;;23.90;;
51927;SDS011;37953;52.806;18.270;2022-12-19T13:08:55;67.60;;;23.55;;
51927;SDS011;37953;52.806;18.270;2022-12-19T13:17:02;64.03;;;22.42;;
51927;SDS011;37953;52.806;18.270;2022-12-19T13:19:29;58.58;;;23.42;;
51927;SDS011;37953;52.806;18.270;2022-12-19T13:25:08;58.20;;;22.17;;
51927;SDS011;37953;52.806;18.270;2022-12-19T13:39:38;68.60;;;26.25;;
51927;SDS011;37953;52.806;18.270;2022-12-19T13:42:14;64.97;;;24.67;;
51927;SDS011;37953;52.806;18.270;2022-12-19T13:45:10;60.97;;;25.00;;
51927;SDS011;37953;52.806;18.270;2022-12-19T13:47:42;63.78;;;23.33;;
51927;SDS011;37953;52.806;18.270;2022-12-19T13:52:57;64.00;;;24.10;;
51927;SDS011;37953;52.806;18.270;2022-12-19T13:55:27;63.67;;;24.00;;
51927;SDS011;37953;52.806;18.270;2022-12-19T13:57:55;67.57;;;24.70;;
51927;SDS011;37953;52.806;18.270;2022-12-19T14:00:30;68.13;;;24.55;;
51927;SDS011;37953;52.806;18.270;2022-12-19T14:03:04;71.70;;;25.65;;
51927;SDS011;37953;52.806;18.270;2022-12-19T14:05:40;82.53;;;28.83;;
51927;SDS011;37953;52.806;18.270;2022-12-19T14:08:06;88.25;;;33.33;;
51927;SDS011;37953;52.806;18.270;2022-12-19T14:10:35;98.65;;;32.28;;
51927;SDS011;37953;52.806;18.270;2022-12-19T14:13:12;81.82;;;28.58;;
51927;SDS011;37953;52.806;18.270;2022-12-19T14:16:02;76.53;;;27.58;;
51927;SDS011;37953;52.806;18.270;2022-12-19T14:18:29;63.08;;;25.08;;
51927;SDS011;37953;52.806;18.270;2022-12-19T14:23:43;91.53;;;33.40;;
51927;SDS011;37953;52.806;18.270;2022-12-19T14:26:12;98.72;;;34.00;;
51927;SDS011;37953;52.806;18.270;2022-12-19T14:28:53;94.20;;;33.45;;
51927;SDS011;37953;52.806;18.270;2022-12-19T14:31:36;79.90;;;30.92;;
51927;SDS011;37953;52.806;18.270;2022-12-19T14:34:05;82.90;;;31.05;;
51927;SDS011;37953;52.806;18.270;2022-12-19T14:36:38;83.43;;;31.00;;
51927;SDS011;37953;52.806;18.270;2022-12-19T14:39:18;78.20;;;29.17;;
51927;SDS011;37953;52.806;18.270;2022-12-19T14:41:47;81.40;;;28.63;;
51927;SDS011;37953;52.806;18.270;2022-12-19T14:44:48;80.82;;;28.23;;
51927;SDS011;37953;52.806;18.270;2022-12-19T14:47:25;80.70;;;29.58;;
51927;SDS011;37953;52.806;18.270;2022-12-19T14:49:59;97.93;;;33.58;;
51927;SDS011;37953;52.806;18.270;2022-12-19T14:57:47;84.68;;;30.00;;
51927;SDS011;37953;52.806;18.270;2022-12-19T15:03:23;77.72;;;28.48;;
51927;SDS011;37953;52.806;18.270;2022-12-19T15:06:16;69.43;;;26.30;;
51927;SDS011;37953;52.806;18.270;2022-12-19T15:08:45;65.00;;;24.17;;
51927;SDS011;37953;52.806;18.270;2022-12-19T15:11:28;71.72;;;26.27;;
51927;SDS011;37953;52.806;18.270;2022-12-19T15:14:23;73.40;;;25.92;;
51927;SDS011;37953;52.806;18.270;2022-12-19T15:17:02;70.35;;;26.17;;
51927;SDS011;37953;52.806;18.270;2022-12-19T15:19:49;75.30;;;27.02;;
51927;SDS011;37953;52.806;18.270;2022-12-19T15:22:17;80.85;;;29.65;;
51927;SDS011;37953;52.806;18.270;2022-12-19T15:24:43;73.28;;;27.10;;
51927;SDS011;37953;52.806;18.270;2022-12-19T15:27:14;69.78;;;26.85;;
51927;SDS011;37953;52.806;18.270;2022-12-19T15:29:42;82.25;;;29.23;;
51927;SDS011;37953;52.806;18.270;2022-12-19T15:32:15;73.85;;;27.88;;
51927;SDS011;37953;52.806;18.270;2022-12-19T15:34:42;75.63;;;28.27;;
51927;SDS011;37953;52.806;18.270;2022-12-19T15:37:09;83.40;;;30.48;;
51927;SDS011;37953;52.806;18.270;2022-12-19T15:39:42;91.03;;;30.33;;
51927;SDS011;37953;52.806;18.270;2022-12-19T15:42:17;92.70;;;33.38;;
51927;SDS011;37953;52.806;18.270;2022-12-19T15:44:47;90.32;;;35.60;;
51927;SDS011;37953;52.806;18.270;2022-12-19T15:49:43;105.90;;;37.47;;
51927;SDS011;37953;52.806;18.270;2022-12-19T15:52:15;98.40;;;36.28;;
51927;SDS011;37953;52.806;18.270;2022-12-19T15:54:50;94.03;;;34.17;;
51927;SDS011;37953;52.806;18.270;2022-12-19T15:57:34;89.57;;;32.30;;
51927;SDS011;37953;52.806;18.270;2022-12-19T16:00:16;93.53;;;36.75;;
51927;SDS011;37953;52.806;18.270;2022-12-19T16:02:45;86.05;;;34.08;;
51927;SDS011;37953;52.806;18.270;2022-12-19T16:05:12;81.70;;;31.80;;
51927;SDS011;37953;52.806;18.270;2022-12-19T16:07:39;100.95;;;35.88;;
51927;SDS011;37953;52.806;18.270;2022-12-19T16:10:05;121.40;;;44.13;;
51927;SDS011;37953;52.806;18.270;2022-12-19T16:12:33;135.63;;;44.85;;
51927;SDS011;37953;52.806;18.270;2022-12-19T16:15:01;138.38;;;45.13;;
51927;SDS011;37953;52.806;18.270;2022-12-19T16:17:29;126.65;;;45.40;;
51927;SDS011;37953;52.806;18.270;2022-12-19T16:19:57;118.78;;;42.35;;
51927;SDS011;37953;52.806;18.270;2022-12-19T16:22:24;107.88;;;40.67;;
51927;SDS011;37953;52.806;18.270;2022-12-19T16:24:52;109.43;;;40.47;;
51927;SDS011;37953;52.806;18.270;2022-12-19T16:27:23;99.55;;;39.03;;
51927;SDS011;37953;52.806;18.270;2022-12-19T16:29:52;109.90;;;41.55;;
51927;SDS011;37953;52.806;18.270;2022-12-19T16:32:19;107.20;;;42.05;;
51927;SDS011;37953;52.806;18.270;2022-12-19T16:34:50;107.97;;;42.00;;
51927;SDS011;37953;52.806;18.270;2022-12-19T16:37:17;121.47;;;44.75;;
51927;SDS011;37953;52.806;18.270;2022-12-19T16:39:43;129.93;;;45.65;;
51927;SDS011;37953;52.806;18.270;2022-12-19T16:42:13;124.78;;;44.13;;
51927;SDS011;37953;52.806;18.270;2022-12-19T16:44:41;119.63;;;43.58;;
51927;SDS011;37953;52.806;18.270;2022-12-19T16:47:13;105.68;;;40.47;;